createdAt,value
2018-10-06T00:00:26.105Z,7.40
2018-10-06T00:02:57.037Z,7.97
2018-10-06T00:05:28.469Z,6.40
2018-10-06T00:08:04.809Z,5.90
2018-10-06T00:10:55.219Z,7.30
2018-10-06T00:13:26.277Z,7.10
2018-10-06T00:15:57.276Z,7.63
2018-10-06T00:18:28.197Z,8.40
2018-10-06T00:20:59.377Z,8.17
2018-10-06T00:23:30.447Z,9.40
2018-10-06T00:26:01.467Z,7.90
2018-10-06T00:28:32.950Z,9.73
2018-10-06T00:31:03.923Z,10.13
2018-10-06T00:33:35.175Z,8.77
2018-10-06T00:36:06.321Z,7.90
2018-10-06T00:38:40.082Z,8.33
2018-10-06T00:41:11.259Z,7.70
2018-10-06T00:43:43.318Z,8.53
2018-10-06T00:46:14.517Z,7.80
2018-10-06T00:48:45.533Z,6.63
2018-10-06T00:51:17.741Z,7.40
2018-10-06T00:53:48.667Z,7.43
2018-10-06T00:56:20.144Z,7.97
2018-10-06T00:58:51.134Z,7.90
2018-10-06T01:01:22.897Z,8.90
2018-10-06T01:03:54.016Z,7.20
2018-10-06T01:06:26.407Z,8.87
2018-10-06T01:08:57.265Z,6.80
2018-10-06T01:11:28.529Z,7.37
2018-10-06T01:14:01.578Z,8.33
2018-10-06T01:16:33.332Z,9.73
2018-10-06T01:19:06.099Z,8.63
2018-10-06T01:21:40.306Z,9.40
2018-10-06T01:24:12.602Z,9.27
2018-10-06T01:26:43.597Z,8.40
2018-10-06T01:29:16.206Z,10.50
2018-10-06T01:31:47.782Z,11.00
2018-10-06T01:34:22.181Z,10.13
2018-10-06T01:36:54.100Z,9.10
2018-10-06T01:39:25.910Z,7.97
2018-10-06T01:41:57.861Z,7.40
2018-10-06T01:44:55.533Z,8.50
2018-10-06T01:47:28.282Z,8.47
2018-10-06T01:49:59.888Z,7.37
2018-10-06T01:52:32.152Z,8.33
2018-10-06T01:55:04.035Z,7.60
2018-10-06T01:57:35.864Z,9.20
2018-10-06T02:00:07.765Z,8.03
2018-10-06T02:02:39.504Z,9.20
2018-10-06T02:05:11.358Z,8.60
2018-10-06T02:07:43.153Z,8.43
2018-10-06T02:10:17.322Z,7.30
2018-10-06T02:12:50.324Z,8.60
2018-10-06T02:15:26.062Z,9.30
2018-10-06T02:18:03.638Z,8.93
2018-10-06T02:20:38.213Z,8.07
2018-10-06T02:23:12.221Z,8.90
2018-10-06T02:25:46.038Z,8.50
2018-10-06T02:28:19.802Z,8.70
2018-10-06T02:30:52.538Z,8.60
2018-10-06T02:33:42.238Z,8.67
2018-10-06T02:36:18.684Z,9.47
2018-10-06T02:38:51.565Z,8.97
2018-10-06T02:41:24.619Z,9.10
2018-10-06T02:43:57.890Z,9.37
2018-10-06T02:46:30.689Z,10.70
2018-10-06T02:49:18.013Z,10.10
2018-10-06T02:51:46.853Z,7.90
2018-10-06T02:54:15.702Z,8.60
2018-10-06T02:56:44.568Z,8.67
2018-10-06T02:59:13.365Z,8.83
2018-10-06T03:01:42.842Z,6.60
2018-10-06T03:04:11.714Z,7.03
2018-10-06T03:06:40.886Z,8.70
2018-10-06T03:09:10.605Z,7.43
2018-10-06T03:11:39.401Z,5.87
2018-10-06T03:14:08.192Z,6.03
2018-10-06T03:16:37.171Z,6.53
2018-10-06T03:19:06.080Z,6.83
2018-10-06T03:21:35.014Z,6.90
2018-10-06T03:24:03.800Z,7.90
2018-10-06T03:26:33.279Z,7.03
2018-10-06T03:29:02.091Z,7.33
2018-10-06T03:31:30.910Z,7.47
2018-10-06T03:33:59.734Z,7.57
2018-10-06T03:36:28.552Z,6.90
2018-10-06T03:38:57.333Z,6.70
2018-10-06T03:41:26.141Z,7.00
2018-10-06T03:43:55.033Z,7.60
2018-10-06T03:46:23.821Z,6.50
2018-10-06T03:48:52.557Z,7.43
2018-10-06T03:51:21.357Z,6.80
2018-10-06T03:53:50.133Z,7.57
2018-10-06T03:56:19.878Z,8.57
2018-10-06T03:58:48.841Z,8.53
2018-10-06T04:01:17.804Z,11.90
2018-10-06T04:03:46.670Z,9.50
2018-10-06T04:06:15.510Z,9.10
2018-10-06T04:08:44.336Z,10.20
2018-10-06T04:11:13.174Z,11.47
2018-10-06T04:13:42.017Z,10.63
2018-10-06T04:16:10.917Z,10.57
2018-10-06T04:18:40.219Z,12.00
2018-10-06T04:21:09.021Z,10.70
2018-10-06T04:23:37.841Z,8.73
2018-10-06T04:26:06.756Z,10.10
2018-10-06T04:28:35.683Z,8.13
2018-10-06T04:31:04.788Z,10.10
2018-10-06T04:33:33.592Z,8.17
2018-10-06T04:36:02.385Z,8.30
2018-10-06T04:38:31.142Z,6.47
2018-10-06T04:40:59.970Z,11.00
2018-10-06T04:43:28.701Z,9.40
2018-10-06T04:45:57.493Z,9.40
2018-10-06T04:48:26.255Z,10.97
2018-10-06T04:50:55.349Z,9.90
2018-10-06T04:53:24.161Z,8.20
2018-10-06T04:55:53.052Z,10.90
2018-10-06T04:58:22.997Z,7.90
2018-10-06T05:00:51.785Z,7.20
2018-10-06T05:03:20.649Z,7.40
2018-10-06T05:05:49.551Z,7.53
2018-10-06T05:08:18.814Z,6.30
2018-10-06T05:10:47.798Z,6.20
2018-10-06T05:13:16.583Z,6.33
2018-10-06T05:15:45.420Z,7.00
2018-10-06T05:18:14.450Z,6.97
2018-10-06T05:20:43.187Z,7.43
2018-10-06T05:23:11.970Z,10.17
2018-10-06T05:25:40.690Z,8.00
2018-10-06T05:28:09.456Z,8.63
2018-10-06T05:30:43.020Z,7.20
2018-10-06T05:33:12.416Z,7.57
2018-10-06T05:35:41.257Z,7.40
2018-10-06T05:38:10.022Z,8.83
2018-10-06T05:40:38.893Z,10.67
2018-10-06T05:43:07.669Z,8.87
2018-10-06T05:45:36.618Z,9.17
2018-10-06T05:48:06.222Z,10.00
2018-10-06T05:50:37.342Z,9.70
2018-10-06T05:53:06.197Z,9.17
2018-10-06T05:55:35.318Z,10.67
2018-10-06T05:58:05.011Z,11.67
2018-10-06T06:00:33.887Z,11.00
2018-10-06T06:03:02.698Z,11.43
2018-10-06T06:05:31.530Z,9.50
2018-10-06T06:08:00.348Z,11.20
2018-10-06T06:10:29.168Z,9.47
2018-10-06T06:12:58.008Z,11.30
2018-10-06T06:15:26.948Z,13.13
2018-10-06T06:17:55.872Z,12.73
2018-10-06T06:20:24.726Z,14.27
2018-10-06T06:22:53.543Z,16.23
2018-10-06T06:25:22.393Z,13.93
2018-10-06T06:27:51.155Z,9.63
2018-10-06T06:30:19.994Z,9.07
2018-10-06T06:32:48.849Z,9.80
2018-10-06T06:35:17.870Z,8.90
2018-10-06T06:37:46.809Z,7.60
2018-10-06T06:40:15.574Z,7.17
2018-10-06T06:42:44.526Z,7.00
2018-10-06T06:45:13.422Z,6.57
2018-10-06T06:47:42.256Z,6.13
2018-10-06T06:50:11.064Z,6.77
2018-10-06T06:52:39.833Z,6.87
2018-10-06T06:55:08.744Z,7.27
2018-10-06T06:57:37.527Z,8.37
2018-10-06T07:00:06.338Z,7.53
2018-10-06T07:02:35.150Z,8.53
2018-10-06T07:05:10.432Z,8.80
2018-10-06T07:07:39.280Z,8.90
2018-10-06T07:10:08.109Z,8.83
2018-10-06T07:12:36.959Z,8.60
2018-10-06T07:15:05.853Z,10.60
2018-10-06T07:17:34.707Z,11.73
2018-10-06T07:20:03.523Z,11.07
2018-10-06T07:22:32.380Z,11.93
2018-10-06T07:25:01.177Z,10.30
2018-10-06T07:27:30.022Z,10.90
2018-10-06T07:29:58.805Z,11.10
2018-10-06T07:32:27.560Z,12.40
2018-10-06T07:34:56.583Z,12.30
2018-10-06T07:37:25.433Z,10.83
2018-10-06T07:39:54.251Z,12.10
2018-10-06T07:42:23.136Z,12.77
2018-10-06T07:44:52.026Z,11.70
2018-10-06T07:47:20.907Z,10.90
2018-10-06T07:49:49.782Z,11.47
2018-10-06T07:52:18.880Z,10.73
2018-10-06T07:54:47.794Z,11.83
2018-10-06T07:57:16.645Z,12.40
2018-10-06T07:59:45.522Z,11.13
2018-10-06T08:02:14.314Z,13.33
2018-10-06T08:04:43.132Z,12.53
2018-10-06T08:07:12.041Z,12.47
2018-10-06T08:09:40.976Z,13.00
2018-10-06T08:12:09.898Z,13.40
2018-10-06T08:14:38.692Z,13.30
2018-10-06T08:17:07.495Z,12.90
2018-10-06T08:19:36.296Z,13.60
2018-10-06T08:22:05.198Z,15.07
2018-10-06T08:24:33.997Z,12.50
2018-10-06T08:27:02.754Z,13.30
2018-10-06T08:29:31.561Z,12.90
2018-10-06T08:32:00.406Z,12.97
2018-10-06T08:34:29.491Z,14.20
2018-10-06T08:36:58.282Z,13.97
2018-10-06T08:39:27.137Z,14.33
2018-10-06T08:41:55.915Z,14.10
2018-10-06T08:44:24.774Z,13.07
2018-10-06T08:46:53.609Z,14.87
2018-10-06T08:49:22.380Z,15.83
2018-10-06T08:51:51.181Z,15.20
2018-10-06T08:54:19.961Z,15.07
2018-10-06T08:56:48.784Z,14.90
2018-10-06T08:59:17.643Z,15.93
2018-10-06T09:01:46.498Z,15.70
2018-10-06T09:04:16.041Z,15.47
2018-10-06T09:06:44.954Z,15.70
2018-10-06T09:09:13.830Z,14.27
2018-10-06T09:11:42.689Z,14.47
2018-10-06T09:14:11.532Z,14.27
2018-10-06T09:16:40.343Z,15.50
2018-10-06T09:19:09.122Z,15.70
2018-10-06T09:21:37.945Z,14.27
2018-10-06T09:24:07.137Z,14.67
2018-10-06T09:26:36.812Z,14.27
2018-10-06T09:29:05.704Z,14.97
2018-10-06T09:31:34.479Z,12.70
2018-10-06T09:34:03.272Z,13.50
2018-10-06T09:36:32.171Z,12.87
2018-10-06T09:39:01.012Z,12.07
2018-10-06T09:41:29.882Z,11.70
2018-10-06T09:43:58.655Z,10.93
2018-10-06T09:46:27.547Z,11.40
2018-10-06T09:48:56.627Z,10.20
2018-10-06T09:51:25.442Z,11.40
2018-10-06T09:53:54.242Z,9.07
2018-10-06T09:56:23.056Z,10.40
2018-10-06T09:58:51.835Z,10.23
2018-10-06T10:01:25.771Z,10.43
2018-10-06T10:03:59.854Z,10.40
2018-10-06T10:06:28.690Z,10.93
2018-10-06T10:08:57.481Z,10.77
2018-10-06T10:11:26.306Z,10.30
2018-10-06T10:13:55.181Z,10.17
2018-10-06T10:16:23.945Z,10.40
2018-10-06T10:18:52.774Z,9.80
2018-10-06T10:21:23.704Z,9.40
2018-10-06T10:23:52.577Z,9.00
2018-10-06T10:26:23.109Z,8.77
2018-10-06T10:28:53.663Z,9.67
2018-10-06T10:31:22.440Z,9.80
2018-10-06T10:33:52.680Z,9.17
2018-10-06T10:36:21.425Z,10.03
2018-10-06T10:38:50.355Z,9.27
2018-10-06T10:41:19.477Z,9.73
2018-10-06T10:43:48.337Z,9.23
2018-10-06T10:46:17.201Z,9.47
2018-10-06T10:48:46.064Z,8.50
2018-10-06T10:51:14.839Z,9.30
2018-10-06T10:53:43.841Z,8.53
2018-10-06T10:56:13.606Z,9.23
2018-10-06T10:58:42.400Z,8.23
2018-10-06T11:01:11.303Z,7.50
2018-10-06T11:03:41.254Z,7.40
2018-10-06T11:06:10.337Z,7.00
2018-10-06T11:08:39.318Z,8.03
2018-10-06T11:11:15.078Z,6.83
2018-10-06T11:13:44.008Z,7.10
2018-10-06T11:16:12.923Z,6.60
2018-10-06T11:18:41.708Z,6.93
2018-10-06T11:21:10.553Z,6.30
2018-10-06T11:23:39.544Z,7.07
2018-10-06T11:26:09.560Z,7.40
2018-10-06T11:28:38.409Z,7.30
2018-10-06T11:31:07.479Z,7.47
2018-10-06T11:33:36.437Z,7.33
2018-10-06T11:36:05.431Z,7.03
2018-10-06T11:38:34.314Z,7.23
2018-10-06T11:41:03.090Z,7.33
2018-10-06T11:43:32.351Z,7.20
2018-10-06T11:46:03.042Z,7.13
2018-10-06T11:48:31.877Z,6.40
2018-10-06T11:51:00.718Z,5.77
2018-10-06T11:53:29.503Z,5.40
2018-10-06T11:55:58.413Z,5.63
2018-10-06T11:58:27.197Z,5.03
2018-10-06T12:00:55.996Z,4.90
2018-10-06T12:03:25.034Z,4.27
2018-10-06T12:05:53.901Z,4.60
2018-10-06T12:08:32.991Z,5.00
2018-10-06T12:11:02.940Z,4.20
2018-10-06T12:14:03.766Z,4.20
2018-10-06T12:16:32.553Z,3.70
2018-10-06T12:19:01.790Z,4.07
2018-10-06T12:22:00.471Z,3.87
2018-10-06T12:24:30.035Z,4.37
2018-10-06T12:27:11.966Z,3.90
2018-10-06T12:29:48.057Z,3.60
2018-10-06T12:32:17.214Z,4.00
2018-10-06T12:34:46.099Z,4.10
2018-10-06T12:37:14.764Z,3.50
2018-10-06T12:39:43.608Z,3.90
2018-10-06T12:42:14.137Z,3.80
2018-10-06T12:44:43.025Z,4.10
2018-10-06T12:47:11.777Z,5.20
2018-10-06T12:49:40.565Z,3.80
2018-10-06T12:52:09.401Z,4.40
2018-10-06T12:54:38.134Z,4.40
2018-10-06T12:57:07.056Z,3.77
2018-10-06T12:59:36.233Z,4.67
2018-10-06T13:02:05.076Z,3.83
2018-10-06T13:04:33.869Z,4.50
2018-10-06T13:07:02.849Z,5.40
2018-10-06T13:09:31.693Z,4.53
2018-10-06T13:12:00.519Z,3.73
2018-10-06T13:14:29.284Z,4.27
2018-10-06T13:16:58.108Z,3.70
2018-10-06T13:19:26.857Z,3.80
2018-10-06T13:21:55.660Z,3.87
2018-10-06T13:24:24.555Z,3.03
2018-10-06T13:26:53.353Z,3.80
2018-10-06T13:29:22.150Z,4.37
2018-10-06T13:31:51.106Z,3.57
2018-10-06T13:34:20.299Z,3.80
2018-10-06T13:36:49.214Z,3.93
2018-10-06T13:39:18.027Z,4.60
2018-10-06T13:41:46.860Z,4.20
2018-10-06T13:44:22.247Z,3.70
2018-10-06T13:46:51.269Z,4.70
2018-10-06T13:49:20.012Z,4.40
2018-10-06T13:51:48.861Z,3.90
2018-10-06T13:54:17.775Z,4.50
2018-10-06T13:56:46.681Z,4.30
2018-10-06T13:59:15.520Z,4.50
2018-10-06T14:01:44.376Z,3.93
2018-10-06T14:04:13.290Z,4.30
2018-10-06T14:06:42.099Z,3.87
2018-10-06T14:09:10.965Z,3.80
2018-10-06T14:11:40.361Z,3.80
2018-10-06T14:14:12.106Z,4.10
2018-10-06T14:16:40.889Z,3.60
2018-10-06T14:19:25.841Z,4.30
2018-10-06T14:22:29.850Z,4.30
2018-10-06T14:24:59.864Z,4.03
2018-10-06T14:27:31.771Z,4.33
2018-10-06T14:30:00.538Z,4.47
2018-10-06T14:33:00.519Z,3.70
2018-10-06T14:36:04.433Z,5.00
2018-10-06T14:38:34.600Z,4.30
2018-10-06T14:41:03.840Z,4.70
2018-10-06T14:43:33.033Z,4.37
2018-10-06T14:46:01.917Z,4.73
2018-10-06T14:51:19.488Z,4.40
2018-10-06T14:53:50.436Z,4.70
2018-10-06T14:56:20.104Z,5.00
2018-10-06T14:58:48.897Z,5.47
2018-10-06T15:01:20.808Z,5.83
2018-10-06T15:03:54.205Z,5.27
2018-10-06T15:06:24.447Z,5.00
2018-10-06T15:08:53.336Z,4.90
2018-10-06T15:11:22.341Z,5.70
2018-10-06T15:13:53.092Z,5.30
2018-10-06T15:16:22.910Z,5.00
2018-10-06T15:18:52.166Z,5.20
2018-10-06T15:21:21.111Z,5.30
2018-10-06T15:23:49.887Z,5.60
2018-10-06T15:26:21.505Z,6.40
2018-10-06T15:29:18.529Z,5.23
2018-10-06T15:31:49.813Z,6.73
2018-10-06T15:34:44.188Z,5.33
2018-10-06T15:37:41.467Z,5.13
2018-10-06T15:40:31.887Z,5.83
2018-10-06T15:43:35.553Z,5.13
2018-10-06T15:46:26.768Z,5.00
2018-10-06T15:49:30.828Z,5.43
2018-10-06T15:52:31.744Z,5.23
2018-10-06T15:55:35.364Z,4.90
2018-10-06T15:58:27.701Z,4.70
2018-10-06T16:01:30.363Z,4.80
2018-10-06T16:07:12.922Z,5.10
2018-10-06T16:10:12.340Z,4.70
2018-10-06T16:13:08.793Z,4.83
2018-10-06T16:16:09.972Z,4.77
2018-10-06T16:19:11.975Z,5.20
2018-10-06T16:22:11.140Z,5.87
2018-10-06T16:25:12.202Z,5.60
2018-10-06T16:28:14.987Z,6.47
2018-10-06T16:31:18.872Z,5.80
2018-10-06T16:34:21.301Z,6.20
2018-10-06T16:37:26.588Z,7.20
2018-10-06T16:40:24.599Z,7.13
2018-10-06T16:43:26.181Z,8.20
2018-10-06T16:45:56.061Z,9.60
2018-10-06T16:48:27.569Z,9.93
2018-10-06T16:50:56.478Z,10.53
2018-10-06T16:53:25.244Z,11.50
2018-10-06T16:55:55.144Z,11.73
2018-10-06T16:58:25.571Z,11.03
2018-10-06T17:00:55.475Z,13.73
2018-10-06T17:03:25.959Z,12.07
2018-10-06T17:05:54.855Z,13.10
2018-10-06T17:08:59.273Z,13.90
2018-10-06T17:12:02.349Z,13.77
2018-10-06T17:15:04.872Z,13.80
2018-10-06T17:18:09.385Z,14.50
2018-10-06T17:21:10.019Z,14.90
2018-10-06T17:24:11.788Z,16.47
2018-10-06T17:27:13.759Z,14.70
2018-10-06T17:30:15.969Z,15.80
2018-10-06T17:33:19.742Z,16.23
2018-10-06T17:39:29.079Z,17.43
2018-10-06T17:45:21.672Z,17.90
2018-10-06T17:48:20.158Z,17.40
2018-10-06T17:51:23.556Z,17.10
2018-10-06T17:57:31.522Z,17.03
2018-10-06T18:00:35.354Z,17.33
2018-10-06T18:03:38.145Z,16.63
2018-10-06T18:09:40.635Z,18.67
2018-10-06T18:12:47.816Z,18.27
2018-10-06T18:15:45.605Z,18.10
2018-10-06T18:18:52.405Z,18.60
2018-10-06T18:21:59.182Z,18.73
2018-10-06T18:24:59.509Z,20.30
2018-10-06T18:28:04.104Z,20.23
2018-10-06T18:31:06.105Z,21.33
2018-10-06T18:34:11.465Z,23.30
2018-10-06T18:37:15.503Z,21.63
2018-10-06T18:40:17.968Z,23.33
2018-10-06T18:49:29.362Z,22.83
2018-10-06T18:55:38.328Z,24.33
2018-10-06T18:58:08.497Z,25.67
2018-10-06T19:00:37.321Z,26.07
2018-10-06T19:03:06.318Z,26.17
2018-10-06T19:05:35.056Z,26.90
2018-10-06T19:08:03.945Z,28.00
2018-10-06T19:10:32.939Z,30.53
2018-10-06T19:13:01.645Z,30.40
2018-10-06T19:15:30.506Z,31.20
2018-10-06T19:17:59.230Z,30.97
2018-10-06T19:20:28.390Z,32.77
2018-10-06T19:22:57.250Z,33.37
2018-10-06T19:25:26.118Z,33.03
2018-10-06T19:28:26.090Z,35.97
2018-10-06T19:30:56.018Z,34.93
2018-10-06T19:33:24.818Z,36.77
2018-10-06T19:35:53.584Z,37.00
2018-10-06T19:38:22.418Z,38.00
2018-10-06T19:41:13.734Z,38.50
2018-10-06T19:44:14.300Z,41.90
2018-10-06T19:47:10.536Z,40.03
2018-10-06T19:50:10.416Z,42.00
2018-10-06T19:53:10.347Z,41.00
2018-10-06T19:56:10.927Z,42.10
2018-10-06T19:59:10.754Z,42.50
2018-10-06T20:02:18.133Z,45.70
2018-10-06T20:05:21.013Z,44.07
2018-10-06T20:08:23.547Z,44.67
2018-10-06T20:11:28.700Z,42.63
2018-10-06T20:14:29.358Z,42.80
2018-10-06T20:17:30.343Z,45.00
2018-10-06T20:20:32.254Z,46.90
2018-10-06T20:23:33.635Z,47.53
2018-10-06T20:26:30.446Z,49.97
2018-10-06T20:29:32.624Z,46.83
2018-10-06T20:32:32.161Z,49.07
2018-10-06T20:35:32.189Z,48.67
2018-10-06T20:38:33.206Z,47.40
2018-10-06T20:41:32.115Z,45.37
2018-10-06T20:44:32.055Z,46.80
2018-10-06T20:47:31.886Z,48.63
2018-10-06T20:50:33.794Z,49.60
2018-10-06T20:56:34.133Z,52.70
2018-10-06T20:59:32.295Z,53.77
2018-10-06T21:02:26.954Z,56.53
2018-10-06T21:05:14.075Z,54.60
2018-10-06T21:08:11.487Z,56.07
2018-10-06T21:11:04.866Z,56.80
2018-10-06T21:14:10.442Z,55.07
2018-10-06T21:17:10.630Z,55.37
2018-10-06T21:20:05.357Z,53.63
2018-10-06T21:23:05.600Z,55.80
2018-10-06T21:26:01.861Z,62.53
2018-10-06T21:29:01.078Z,60.27
2018-10-06T21:32:02.418Z,59.53
2018-10-06T21:34:55.057Z,64.33
2018-10-06T21:37:56.821Z,65.07
2018-10-06T21:40:52.268Z,65.37
2018-10-06T21:43:46.334Z,66.80
2018-10-06T21:46:42.599Z,62.37
2018-10-06T21:49:34.460Z,68.27
2018-10-06T21:52:05.188Z,69.20
2018-10-06T21:54:34.475Z,69.47
2018-10-06T21:57:04.535Z,71.87
2018-10-06T21:59:33.957Z,68.27
2018-10-06T22:02:02.768Z,68.40
2018-10-06T22:04:31.569Z,67.70
2018-10-06T22:07:00.406Z,71.77
2018-10-06T22:09:29.228Z,66.50
2018-10-06T22:11:58.074Z,64.40
2018-10-06T22:14:26.929Z,65.77
2018-10-06T22:16:55.716Z,66.90
2018-10-06T22:19:24.664Z,70.53
2018-10-06T22:21:53.528Z,66.37
2018-10-06T22:24:22.320Z,71.17
2018-10-06T22:26:51.289Z,72.07
2018-10-06T22:29:20.087Z,66.20
2018-10-06T22:31:48.816Z,71.13
2018-10-06T22:34:17.590Z,71.63
2018-10-06T22:36:46.348Z,68.83
2018-10-06T22:39:15.229Z,70.23
2018-10-06T22:41:44.126Z,70.87
2018-10-06T22:44:12.924Z,66.20
2018-10-06T22:46:41.786Z,65.90
2018-10-06T22:49:10.664Z,54.37
2018-10-06T22:51:39.431Z,65.30
2018-10-06T22:54:08.173Z,65.93
2018-10-06T22:56:36.967Z,64.70
2018-10-06T22:59:06.253Z,62.23
2018-10-06T23:01:35.073Z,60.07
2018-10-06T23:04:03.899Z,57.40
2018-10-06T23:06:32.655Z,57.67
2018-10-06T23:09:01.674Z,56.10
2018-10-06T23:11:30.448Z,56.80
2018-10-06T23:13:59.273Z,54.33
2018-10-06T23:16:28.040Z,48.20
2018-10-06T23:18:56.909Z,38.03
2018-10-06T23:21:25.704Z,29.43
2018-10-06T23:23:54.864Z,22.77
2018-10-06T23:26:23.655Z,18.13
2018-10-06T23:28:55.706Z,14.20
2018-10-06T23:31:24.634Z,13.77
2018-10-06T23:33:55.777Z,12.37
2018-10-06T23:36:26.807Z,14.60
2018-10-06T23:38:55.571Z,13.50
2018-10-06T23:41:24.317Z,14.53
2018-10-06T23:43:55.535Z,13.57
2018-10-06T23:46:26.452Z,14.47
2018-10-06T23:48:57.498Z,14.47
2018-10-06T23:51:28.352Z,13.97
2018-10-06T23:53:59.472Z,13.47
2018-10-06T23:56:28.315Z,12.60
2018-10-06T23:58:57.126Z,11.80
